EmailTwitter


Surface observations / France / LFBO (07630)

Regions: Quebec | Canada | USA | Europe | France | UK | Elsewhere
Station
Display
Info & Location for LFBO (07630) | Help decoding METAR

Weather Conditions observed on 2018/12/12 at 12:00 UTC at TOULOUSE/BLAGNAC, FR (LFBO)

Sky conditions: overcast.

Temperature: 9.0 Celsius.

Dewpoint: 8.0 Celsius.

Relative Humidity: 93%

Windchill Factor: 6.

Winds: Northwest at 19 km/h or 10 knots.

Mean Sea level Pressure: 101.90 kilopascals.

Horizontal visibility: 6.21 statute miles or 9.94 kilometers.

Height of the Ceiling: 213 metres ( 700 feet ).

Coded METAR:

LFBO 121200Z AUTO 30010KT 9999 OVC007 09/08 Q1019 TEMPO 4000 BR BECMG 08003KT

SCT005 BKN010=